Pagina principală
METAR-TAF:

METAR-TAF

Aeroporturi :

Cuzco, Peru

Latitudine: 13-33S, longitudine: 071-59W, elevație: 3248 m

Observații meteo curente

Raportul a fost făcut în urmă cu 35 de minute, la 08:00 UTC
Vânt 1 kt din direcții variabile
Temperatură 6°C
Umiditate 81%
Presiune 1032 hPa
Vizibilitate de 10 km sau mai mult

METAR: SPZO 140800Z VRB01KT 9999 NSC 06/03 Q1032 RMK BIRD HAZARD RWY 10/28 PP000

Ora: 03:35 (08:35 UTC)

Prognoză

Raportul a fost făcut în urmă cu 3 ore și 35 de minute, la 05:00 UTC
Prognoză valabilă de la 14 ora 06 UTC la 15 ora 06 UTC
Vânt 5 kt din direcții variabile
Vizibilitate de 10 km sau mai mult
Temporar
de la 14 ora 18 UTC la 14 ora 21 UTC
Vânt 15 kt de la Vest

TAF: SPZO 140500Z 1406/1506 VRB05KT 9999 NSC TX23/1419Z TNM02/1411Z TEMPO 1418/1421 28015KT

Observații și prognoze meteo pentru peste 4.000 de aeroporturi (rapoarte METAR și TAF).

Stațiile disponibile sunt reprezentate pe hartă prin puncte galbene și roșii.

Țineți indicatorul mouse-ului pe punctul dorit pentru a vedea denumirea stației.

Apoi, faceți clic pentru a vedea observațiile și prognozele meteorologice.

Pentru a schimba harta: Pentru mărire, faceți clic pe butoanele verzi cu cruce neagră; pentru micșorare, pe butonul verde cu o liniuță; pentru hărți învecinate, pe săgețile verzi.


METAR-TAF: